Time;durP1;ratioP1;P1;durP2;ratioP2;P2;SDS_P1;SDS_P2;PMS_P1;PMS_P2;Temp;Humidity;BMP_temperature;BMP_pressure;BME280_temperature;BME280_humidity;BME280_pressure;Samples;Min_cycle;Max_cycle;Signal;HPM_P1;HPM_P2
2021/08/12 00:00:12;;;;;;;13.63;9.50;;;16.10;99.90;;;;;;4903164;29;20047;-57
2021/08/12 00:02:37;;;;;;;10.85;9.63;;;16.10;99.90;;;;;;4905550;29;20036;-56
2021/08/12 00:05:07;;;;;;;17.40;9.95;;;16.00;99.90;;;;;;4913811;29;20036;-53
2021/08/12 00:07:33;;;;;;;13.55;9.85;;;16.00;99.90;;;;;;4913748;29;20020;-57
2021/08/12 00:10:00;;;;;;;14.07;10.77;;;15.90;99.90;;;;;;4913562;29;20670;-59
2021/08/12 00:12:26;;;;;;;20.10;10.55;;;15.80;99.90;;;;;;4887178;29;20084;-53
2021/08/12 00:14:51;;;;;;;16.40;9.70;;;15.70;99.90;;;;;;4907998;29;20373;-58
2021/08/12 00:17:17;;;;;;;14.57;10.15;;;15.70;99.90;;;;;;4911065;29;20036;-57
2021/08/12 00:19:42;;;;;;;15.90;11.98;;;15.60;99.90;;;;;;4913658;29;20099;-53
2021/08/12 00:22:08;;;;;;;15.98;10.98;;;15.60;99.90;;;;;;4882503;29;20044;-57
2021/08/12 00:24:34;;;;;;;17.42;10.00;;;15.60;99.90;;;;;;4904318;29;20107;-59
2021/08/12 00:27:02;;;;;;;15.05;12.07;;;15.50;99.90;;;;;;4909918;29;20029;-59
2021/08/12 00:29:28;;;;;;;20.83;12.27;;;15.50;99.90;;;;;;4910078;29;20039;-58
2021/08/12 00:31:54;;;;;;;18.50;11.20;;;15.50;99.90;;;;;;4903983;29;20107;-59
2021/08/12 00:34:19;;;;;;;13.35;10.98;;;15.50;99.90;;;;;;4907844;29;20468;-57
2021/08/12 00:36:45;;;;;;;22.38;11.30;;;15.50;99.90;;;;;;4910800;29;20028;-54
2021/08/12 00:39:10;;;;;;;16.45;12.77;;;15.50;99.90;;;;;;4912316;29;20088;-59
2021/08/12 00:41:38;;;;;;;16.95;13.15;;;15.50;99.90;;;;;;4904958;29;20119;-59
2021/08/12 00:44:04;;;;;;;20.73;12.73;;;15.40;99.90;;;;;;4907544;29;20039;-57
2021/08/12 00:46:30;;;;;;;21.08;12.70;;;15.50;99.90;;;;;;4900298;29;20036;-58
2021/08/12 00:48:55;;;;;;;15.65;12.02;;;15.50;99.90;;;;;;4905618;29;20036;-60
2021/08/12 00:51:21;;;;;;;17.50;11.65;;;15.60;99.90;;;;;;4905112;29;20032;-59
2021/08/12 00:53:46;;;;;;;14.23;10.52;;;15.50;99.90;;;;;;4912227;29;20048;-56
2021/08/12 00:56:12;;;;;;;19.98;11.02;;;15.50;99.90;;;;;;4909530;29;20020;-58
2021/08/12 00:58:37;;;;;;;18.88;13.35;;;15.40;99.90;;;;;;4905496;29;20036;-57
2021/08/12 01:01:03;;;;;;;17.02;13.05;;;15.50;99.90;;;;;;4909437;29;20536;-54
2021/08/12 01:03:29;;;;;;;13.57;11.15;;;15.50;99.90;;;;;;4907058;29;20066;-58
2021/08/12 01:05:59;;;;;;;16.52;11.80;;;15.50;99.90;;;;;;4911384;29;20020;-56
2021/08/12 01:09:02;;;;;;;20.55;12.05;;;15.50;99.90;;;;;;4904637;29;20099;-57
2021/08/12 01:11:40;;;;;;;25.25;12.70;;;15.50;99.90;;;;;;4906733;29;20024;-55
2021/08/12 01:14:12;;;;;;;17.50;12.05;;;15.40;99.90;;;;;;4905606;29;20024;-55
2021/08/12 01:16:46;;;;;;;18.48;13.88;;;15.40;99.90;;;;;;4907972;29;20044;-57
2021/08/12 01:19:29;;;;;;;21.80;13.32;;;15.40;99.90;;;;;;4907363;29;20436;-57
2021/08/12 01:22:01;;;;;;;17.80;12.50;;;15.40;99.90;;;;;;4909247;29;20076;-55
2021/08/12 01:24:34;;;;;;;17.85;12.02;;;15.30;99.90;;;;;;4898286;29;20296;-56
2021/08/12 01:27:03;;;;;;;20.98;13.07;;;15.20;99.90;;;;;;4907752;29;20058;-57
2021/08/12 01:29:52;;;;;;;16.85;12.85;;;15.20;99.90;;;;;;4907438;29;20040;-57
2021/08/12 01:32:23;;;;;;;16.98;12.98;;;15.20;99.90;;;;;;4907729;29;20035;-57
2021/08/12 01:34:57;;;;;;;22.52;13.77;;;15.20;99.90;;;;;;4911699;29;20075;-60
2021/08/12 01:37:24;;;;;;;;;;;15.10;99.90;;;;;;4905253;29;20051;-57
2021/08/12 01:39:52;;;;;;;15.90;12.98;;;15.10;99.90;;;;;;4908328;29;19972;-56
2021/08/12 01:42:19;;;;;;;19.17;13.88;;;15.10;99.90;;;;;;4908290;29;20492;-57
2021/08/12 01:44:46;;;;;;;17.90;14.18;;;15.00;99.90;;;;;;4908912;29;20040;-56
2021/08/12 01:47:12;;;;;;;20.65;13.07;;;15.00;99.90;;;;;;4900565;29;20539;-58
2021/08/12 01:49:41;;;;;;;20.65;13.65;;;15.00;99.90;;;;;;4906521;29;20115;-56
2021/08/12 01:52:07;;;;;;;20.25;13.75;;;15.10;99.90;;;;;;4905015;29;20487;-54
2021/08/12 01:54:35;;;;;;;18.90;11.10;;;15.10;99.90;;;;;;4908122;29;20111;-56
2021/08/12 01:57:02;;;;;;;16.90;12.30;;;15.00;99.90;;;;;;4908636;29;20028;-56
2021/08/12 01:59:30;;;;;;;20.23;13.55;;;15.00;99.90;;;;;;4904288;29;20028;-54
2021/08/12 02:01:56;;;;;;;21.55;14.27;;;14.90;99.90;;;;;;4904832;29;20042;-54
2021/08/12 02:04:22;;;;;;;16.45;13.25;;;14.90;99.90;;;;;;4911006;29;20040;-55
2021/08/12 02:06:50;;;;;;;28.42;16.90;;;14.90;99.90;;;;;;4903784;29;20504;-52
2021/08/12 02:09:15;;;;;;;19.83;14.90;;;14.80;99.90;;;;;;4903656;29;20044;-56
2021/08/12 02:11:41;;;;;;;18.58;13.60;;;14.80;99.90;;;;;;4905915;29;20032;-58
2021/08/12 02:14:06;;;;;;;19.15;14.45;;;14.70;99.90;;;;;;4909109;29;20028;-56
2021/08/12 02:16:32;;;;;;;20.17;13.82;;;14.70;99.90;;;;;;4906093;29;20036;-55
2021/08/12 02:18:59;;;;;;;22.90;14.40;;;14.70;99.90;;;;;;4923940;29;20059;-52
2021/08/12 02:21:34;;;;;;;25.10;15.70;;;14.70;99.90;;;;;;4908525;29;20042;-55
2021/08/12 02:24:34;;;;;;;20.50;13.45;;;14.70;99.90;;;;;;4892620;29;20437;-58
2021/08/12 02:27:08;;;;;;;16.85;12.57;;;14.70;99.90;;;;;;4909828;29;20032;-57
2021/08/12 02:29:34;;;;;;;22.42;16.33;;;14.60;99.90;;;;;;4907125;29;20063;-53
2021/08/12 02:32:06;;;;;;;22.02;15.80;;;14.60;99.90;;;;;;4909776;29;20687;-56
2021/08/12 02:34:34;;;;;;;21.63;14.30;;;14.60;99.90;;;;;;4921075;29;20047;-58
2021/08/12 02:37:03;;;;;;;21.75;14.05;;;14.60;99.90;;;;;;4912354;29;20111;-58
2021/08/12 02:39:30;;;;;;;18.52;13.23;;;14.60;99.90;;;;;;4906245;29;20036;-58
2021/08/12 02:41:57;;;;;;;19.25;12.93;;;14.60;99.90;;;;;;4901821;29;20049;-56
2021/08/12 02:44:23;;;;;;;18.88;14.55;;;14.60;99.90;;;;;;4911776;29;20028;-55
2021/08/12 02:46:50;;;;;;;17.48;12.30;;;14.60;99.90;;;;;;4907183;29;20388;-57
2021/08/12 02:49:19;;;;;;;15.20;12.50;;;14.60;99.90;;;;;;4910416;29;20067;-55
2021/08/12 02:51:45;;;;;;;18.75;12.68;;;14.60;99.90;;;;;;4910302;29;20024;-57
2021/08/12 02:54:11;;;;;;;20.45;13.02;;;14.60;99.90;;;;;;4911559;29;20024;-55
2021/08/12 02:56:38;;;;;;;20.63;13.82;;;14.60;99.90;;;;;;4908257;29;20047;-56
2021/08/12 02:59:04;;;;;;;18.95;13.13;;;14.60;99.90;;;;;;4911120;29;20056;-55
2021/08/12 03:01:33;;;;;;;16.77;13.15;;;14.60;99.90;;;;;;4910027;29;20079;-56
2021/08/12 03:03:59;;;;;;;15.57;11.88;;;14.60;99.90;;;;;;4911296;29;20028;-55
2021/08/12 03:06:26;;;;;;;22.45;12.55;;;14.70;99.90;;;;;;4907976;29;20453;-52
2021/08/12 03:08:53;;;;;;;20.85;12.30;;;14.60;99.90;;;;;;4912580;29;20048;-55
2021/08/12 03:11:20;;;;;;;14.93;12.55;;;14.70;99.90;;;;;;4910469;29;20028;-55
2021/08/12 03:13:47;;;;;;;19.35;11.52;;;14.70;99.90;;;;;;4914061;29;20030;-55
2021/08/12 03:16:12;;;;;;;17.15;12.57;;;14.70;99.90;;;;;;4906935;29;20096;-57
2021/08/12 03:18:38;;;;;;;14.80;11.80;;;14.80;99.90;;;;;;4912181;29;20039;-56
2021/08/12 03:21:09;;;;;;;19.02;12.05;;;14.80;99.90;;;;;;4909995;29;20497;-56
2021/08/12 03:23:35;;;;;;;20.23;12.20;;;14.80;99.90;;;;;;4891876;29;20060;-56
2021/08/12 03:26:02;;;;;;;14.30;11.52;;;14.80;99.90;;;;;;4908560;29;20032;-54
2021/08/12 03:28:27;;;;;;;16.58;11.10;;;14.80;99.90;;;;;;4910816;29;20487;-57
2021/08/12 03:30:53;;;;;;;12.18;10.77;;;14.80;99.90;;;;;;4907340;29;20045;-57
2021/08/12 03:33:19;;;;;;;15.02;10.45;;;14.80;99.90;;;;;;4923513;29;20024;-57
2021/08/12 03:35:44;;;;;;;20.33;12.45;;;14.80;99.90;;;;;;4908433;29;20032;-54
2021/08/12 03:38:10;;;;;;;17.70;12.00;;;14.80;99.90;;;;;;4905158;29;20055;-56
2021/08/12 03:40:35;;;;;;;14.80;10.27;;;14.80;99.90;;;;;;4904481;29;20063;-56
2021/08/12 03:43:01;;;;;;;16.70;11.30;;;14.80;99.90;;;;;;4903969;29;20039;-56
2021/08/12 03:45:26;;;;;;;17.10;11.23;;;14.80;99.90;;;;;;4911439;29;20036;-57
2021/08/12 03:47:52;;;;;;;16.73;12.00;;;14.80;99.90;;;;;;4905069;29;20184;-55
2021/08/12 03:50:17;;;;;;;17.02;12.27;;;14.70;99.90;;;;;;4904865;29;20032;-53
2021/08/12 03:52:43;;;;;;;16.52;11.00;;;14.80;99.90;;;;;;4909537;29;20099;-57
2021/08/12 03:55:10;;;;;;;16.20;10.52;;;14.80;99.90;;;;;;4908429;29;20032;-57
2021/08/12 03:57:43;;;;;;;17.45;11.88;;;14.70;99.90;;;;;;4903402;29;20035;-51
2021/08/12 04:00:11;;;;;;;17.08;11.18;;;14.80;99.90;;;;;;4900779;29;20025;-58
2021/08/12 04:02:37;;;;;;;14.43;11.13;;;14.80;99.90;;;;;;4906435;29;20060;-58
2021/08/12 04:05:02;;;;;;;13.02;11.05;;;14.80;99.90;;;;;;4912687;29;20035;-55
2021/08/12 04:07:28;;;;;;;15.85;10.85;;;14.80;99.90;;;;;;4911617;29;20042;-55
2021/08/12 04:09:54;;;;;;;16.75;10.95;;;14.80;99.90;;;;;;4911692;29;20031;-56
2021/08/12 04:12:19;;;;;;;14.82;11.02;;;14.80;99.90;;;;;;4906156;29;20107;-58
2021/08/12 04:14:45;;;;;;;17.13;11.80;;;14.80;99.90;;;;;;4907159;29;20032;-56
2021/08/12 04:17:10;;;;;;;12.40;11.10;;;14.80;99.90;;;;;;4905744;29;20027;-56
2021/08/12 04:19:36;;;;;;;14.07;11.07;;;14.80;99.90;;;;;;4911471;29;20855;-57
2021/08/12 04:22:01;;;;;;;12.70;10.02;;;14.80;99.90;;;;;;4909257;29;20100;-57
2021/08/12 04:24:27;;;;;;;15.23;9.10;;;14.80;99.90;;;;;;4892642;29;20064;-56
2021/08/12 04:26:53;;;;;;;12.63;10.20;;;14.80;99.90;;;;;;4906663;29;20036;-56
2021/08/12 04:29:18;;;;;;;16.60;11.25;;;14.90;99.90;;;;;;4909017;29;20083;-57
2021/08/12 04:31:44;;;;;;;11.77;9.65;;;14.90;99.90;;;;;;4906421;29;20064;-58
2021/08/12 04:34:11;;;;;;;13.90;9.75;;;14.90;99.90;;;;;;4904826;29;20494;-54
2021/08/12 04:36:37;;;;;;;13.18;9.82;;;15.00;99.90;;;;;;4912961;29;20031;-57
2021/08/12 04:39:03;;;;;;;14.88;10.80;;;15.00;99.90;;;;;;4912475;29;20395;-58
2021/08/12 04:41:28;;;;;;;15.95;9.68;;;15.10;99.90;;;;;;4914276;29;20032;-55
2021/08/12 04:43:54;;;;;;;16.38;9.88;;;15.10;99.90;;;;;;4912322;29;20028;-55
2021/08/12 04:46:20;;;;;;;11.75;9.20;;;15.20;99.90;;;;;;4909805;29;20032;-54
2021/08/12 04:48:46;;;;;;;13.57;9.32;;;15.20;99.90;;;;;;4911349;29;20047;-55
2021/08/12 04:51:11;;;;;;;16.38;8.95;;;15.20;99.90;;;;;;4902256;29;20032;-57
2021/08/12 04:53:37;;;;;;;13.38;8.70;;;15.20;99.90;;;;;;4910603;29;20040;-58
2021/08/12 04:56:03;;;;;;;11.15;8.68;;;15.20;99.90;;;;;;4905104;29;20065;-57
2021/08/12 04:58:28;;;;;;;16.17;9.43;;;15.20;99.90;;;;;;4909661;29;20118;-56
2021/08/12 05:00:54;;;;;;;13.27;9.02;;;15.10;99.90;;;;;;4902463;29;20028;-56
2021/08/12 05:03:20;;;;;;;14.02;8.57;;;15.10;99.90;;;;;;4908939;29;20040;-56
2021/08/12 05:05:45;;;;;;;15.27;8.25;;;15.10;99.90;;;;;;4906272;29;20088;-56
2021/08/12 05:08:11;;;;;;;16.02;9.70;;;15.10;99.90;;;;;;4903566;29;20029;-58
2021/08/12 05:10:37;;;;;;;13.02;7.50;;;15.10;99.90;;;;;;4909582;29;20036;-58
2021/08/12 05:13:03;;;;;;;10.93;8.10;;;15.10;99.90;;;;;;4907072;29;20488;-57
2021/08/12 05:15:29;;;;;;;13.20;8.10;;;15.20;99.90;;;;;;4907724;29;20032;-55
2021/08/12 05:17:55;;;;;;;12.05;8.25;;;15.30;99.90;;;;;;4907492;29;20029;-58
2021/08/12 05:20:21;;;;;;;11.57;8.63;;;15.40;99.90;;;;;;4907273;29;20039;-57
2021/08/12 05:22:47;;;;;;;12.38;8.10;;;15.50;99.90;;;;;;4907443;29;20489;-57
2021/08/12 05:25:13;;;;;;;16.10;8.68;;;15.70;99.90;;;;;;4891248;29;20048;-58
2021/08/12 05:27:39;;;;;;;14.63;8.07;;;15.80;99.90;;;;;;4908589;29;20041;-56
2021/08/12 05:30:05;;;;;;;10.50;7.93;;;16.00;99.90;;;;;;4906855;29;20039;-56
2021/08/12 05:32:30;;;;;;;10.68;6.85;;;16.20;99.90;;;;;;4904412;29;20036;-56
2021/08/12 05:34:56;;;;;;;12.63;7.78;;;16.40;99.90;;;;;;4911792;29;20551;-58
2021/08/12 05:37:22;;;;;;;11.23;7.60;;;16.50;99.90;;;;;;4907768;29;20028;-55
2021/08/12 05:39:47;;;;;;;11.48;7.25;;;16.60;99.90;;;;;;4911987;29;20084;-57
2021/08/12 05:42:13;;;;;;;11.18;7.32;;;16.70;99.90;;;;;;4904685;29;20075;-55
2021/08/12 05:44:38;;;;;;;12.15;7.50;;;16.80;99.90;;;;;;4904412;29;20031;-56
2021/08/12 05:47:04;;;;;;;13.63;7.10;;;17.00;99.90;;;;;;4909722;29;20032;-56
2021/08/12 05:49:29;;;;;;;8.48;6.30;;;17.10;99.90;;;;;;4911971;29;20102;-56
2021/08/12 05:51:55;;;;;;;10.13;7.00;;;17.20;99.90;;;;;;4908087;29;20028;-57
2021/08/12 05:54:21;;;;;;;9.50;6.47;;;17.40;99.90;;;;;;4910834;29;20036;-53
2021/08/12 05:56:46;;;;;;;15.23;6.65;;;17.60;99.90;;;;;;4904890;29;20028;-55
2021/08/12 05:59:12;;;;;;;8.32;6.05;;;17.80;99.90;;;;;;4909808;29;20071;-57
2021/08/12 06:01:38;;;;;;;8.98;6.72;;;17.90;99.90;;;;;;4909358;29;20518;-56
2021/08/12 06:04:03;;;;;;;10.35;6.78;;;18.20;99.90;;;;;;4909743;29;20035;-58
2021/08/12 06:06:32;;;;;;;11.30;6.47;;;18.80;99.90;;;;;;4912432;29;20036;-53
2021/08/12 06:08:58;;;;;;;8.98;6.20;;;19.30;99.90;;;;;;4911467;29;20156;-56
2021/08/12 06:11:23;;;;;;;13.27;6.55;;;19.60;99.90;;;;;;4911200;29;20107;-57
2021/08/12 06:13:49;;;;;;;11.55;6.10;;;20.20;99.90;;;;;;4912843;29;20031;-58
2021/08/12 06:16:14;;;;;;;8.63;5.88;;;20.50;99.90;;;;;;4910778;29;20035;-59
2021/08/12 06:18:40;;;;;;;8.13;6.05;;;20.80;99.90;;;;;;4913300;29;20156;-56
2021/08/12 06:21:06;;;;;;;8.68;5.95;;;20.80;99.90;;;;;;4913502;29;20106;-56
2021/08/12 06:23:31;;;;;;;10.80;5.43;;;21.80;99.90;;;;;;4896046;29;20084;-56
2021/08/12 06:25:58;;;;;;;10.45;5.30;;;22.60;99.90;;;;;;4907003;29;20036;-57
2021/08/12 06:28:24;;;;;;;10.55;6.20;;;23.80;99.90;;;;;;4910502;29;20559;-58
2021/08/12 06:30:49;;;;;;;8.80;5.30;;;24.50;99.90;;;;;;4901647;29;20111;-58
2021/08/12 06:33:15;;;;;;;6.15;4.90;;;25.00;99.90;;;;;;4907952;29;20075;-58
2021/08/12 06:35:41;;;;;;;9.60;4.57;;;24.70;99.90;;;;;;4902750;29;20527;-55
2021/08/12 06:38:07;;;;;;;6.93;4.78;;;25.10;99.40;;;;;;4910724;29;20051;-55
2021/08/12 06:40:33;;;;;;;10.77;4.88;;;26.10;98.90;;;;;;4913814;29;20037;-58
2021/08/12 06:42:59;;;;;;;7.70;5.35;;;26.50;96.90;;;;;;4913206;29;20032;-57
2021/08/12 06:45:25;;;;;;;7.55;5.57;;;27.80;95.50;;;;;;4905102;29;20448;-57
2021/08/12 06:47:52;;;;;;;6.82;4.63;;;28.50;94.50;;;;;;4911858;29;20597;-58
2021/08/12 06:50:20;;;;;;;6.60;5.90;;;28.80;93.40;;;;;;4902363;29;20028;-59
2021/08/12 06:52:46;;;;;;;12.23;5.18;;;27.70;94.40;;;;;;4911221;29;20048;-58
2021/08/12 06:55:12;;;;;;;7.30;4.72;;;28.20;93.60;;;;;;4908241;29;20036;-58
2021/08/12 06:57:38;;;;;;;12.95;6.32;;;28.80;94.00;;;;;;4910247;29;20493;-60
2021/08/12 07:00:05;;;;;;;10.15;5.60;;;28.80;92.70;;;;;;4914112;29;20127;-59
2021/08/12 07:02:31;;;;;;;8.32;4.90;;;29.30;92.10;;;;;;4913020;29;20072;-59
2021/08/12 07:04:56;;;;;;;9.77;5.80;;;29.10;92.10;;;;;;4914704;29;20048;-58
2021/08/12 07:07:22;;;;;;;8.65;4.80;;;28.80;92.00;;;;;;4913068;29;20050;-58
2021/08/12 07:09:50;;;;;;;9.35;5.63;;;28.60;92.80;;;;;;4906013;29;20036;-59
2021/08/12 07:12:15;;;;;;;9.35;5.10;;;28.50;93.50;;;;;;4912397;29;20025;-56
2021/08/12 07:14:41;;;;;;;8.90;5.50;;;28.40;93.60;;;;;;4910676;29;20021;-60
2021/08/12 07:17:07;;;;;;;9.73;5.63;;;28.30;93.30;;;;;;4905417;29;20104;-58
2021/08/12 07:19:32;;;;;;;11.63;6.00;;;27.70;93.80;;;;;;4906122;29;20042;-58
2021/08/12 07:21:58;;;;;;;7.20;5.68;;;27.40;94.00;;;;;;4902636;29;20058;-58
2021/08/12 07:24:25;;;;;;;11.07;6.15;;;26.50;95.30;;;;;;4895978;29;20048;-54
2021/08/12 07:26:51;;;;;;;13.30;5.70;;;26.30;95.90;;;;;;4912063;29;20035;-59
2021/08/12 07:29:17;;;;;;;9.93;6.13;;;25.40;96.90;;;;;;4906988;29;20043;-58
2021/08/12 07:31:43;;;;;;;7.57;6.22;;;25.70;96.90;;;;;;4903631;29;20499;-58
2021/08/12 07:34:09;;;;;;;14.13;6.30;;;25.10;97.50;;;;;;4913416;29;20036;-54
2021/08/12 07:36:37;;;;;;;10.40;5.82;;;25.30;97.40;;;;;;4903619;29;20025;-58
2021/08/12 07:39:04;;;;;;;8.57;5.43;;;25.10;98.10;;;;;;4913639;29;20032;-58
2021/08/12 07:41:29;;;;;;;9.60;5.88;;;25.40;98.20;;;;;;4910241;29;20036;-59
2021/08/12 07:43:55;;;;;;;11.23;6.78;;;25.60;98.40;;;;;;4910866;29;20091;-58
2021/08/12 07:46:21;;;;;;;13.30;6.75;;;25.50;97.40;;;;;;4900877;29;20031;-59
2021/08/12 07:48:46;;;;;;;7.47;5.60;;;26.20;96.90;;;;;;4908253;29;20530;-56
2021/08/12 07:51:12;;;;;;;11.93;7.13;;;26.00;96.80;;;;;;4900608;29;20095;-57
2021/08/12 07:53:38;;;;;;;8.25;6.43;;;26.40;96.10;;;;;;4907636;29;20109;-59
2021/08/12 07:56:04;;;;;;;11.00;6.22;;;26.20;96.70;;;;;;4908349;29;20493;-58
2021/08/12 07:58:29;;;;;;;9.93;5.85;;;26.60;95.90;;;;;;4905467;29;20028;-55
2021/08/12 08:00:55;;;;;;;11.00;7.03;;;26.10;96.30;;;;;;4911420;29;20032;-57
2021/08/12 08:03:21;;;;;;;12.95;6.72;;;26.60;95.90;;;;;;4911190;29;20028;-55
2021/08/12 08:05:46;;;;;;;10.98;6.40;;;27.00;95.40;;;;;;4906242;29;20052;-58
2021/08/12 08:08:12;;;;;;;9.30;6.25;;;27.20;95.30;;;;;;4906095;29;20542;-57
2021/08/12 08:10:37;;;;;;;11.07;6.70;;;27.10;95.40;;;;;;4907235;29;20111;-58
2021/08/12 08:13:03;;;;;;;11.50;6.07;;;27.50;94.40;;;;;;4909013;29;20036;-58
2021/08/12 08:15:29;;;;;;;9.30;6.60;;;27.30;95.20;;;;;;4912013;29;20032;-59
2021/08/12 08:17:54;;;;;;;9.27;6.60;;;27.80;94.40;;;;;;4907856;29;20131;-58
2021/08/12 08:20:20;;;;;;;12.25;6.45;;;27.70;94.20;;;;;;4903437;29;20032;-60
2021/08/12 08:22:46;;;;;;;10.85;7.47;;;27.60;94.90;;;;;;4901557;29;20032;-60
2021/08/12 08:25:13;;;;;;;15.05;8.50;;;28.10;94.10;;;;;;4887340;29;20120;-59
2021/08/12 08:27:38;;;;;;;13.05;6.55;;;28.60;94.40;;;;;;4904784;29;20036;-59
2021/08/12 08:30:05;;;;;;;13.77;7.80;;;29.70;92.90;;;;;;4907870;29;20032;-59
2021/08/12 08:32:32;;;;;;;12.23;8.05;;;29.20;92.70;;;;;;4903909;29;20593;-58
2021/08/12 08:34:58;;;;;;;10.40;7.93;;;28.60;92.80;;;;;;4909204;29;20032;-58
2021/08/12 08:37:23;;;;;;;13.82;8.85;;;27.90;94.00;;;;;;4903562;29;20040;-58
2021/08/12 08:39:49;;;;;;;13.63;8.88;;;27.60;94.20;;;;;;4907712;29;20024;-56
2021/08/12 08:42:16;;;;;;;9.10;7.32;;;28.60;93.10;;;;;;4906125;29;20032;-58
2021/08/12 08:44:45;;;;;;;10.00;8.38;;;29.80;92.30;;;;;;4906858;29;20120;-58
2021/08/12 08:47:13;;;;;;;11.52;8.88;;;29.70;92.10;;;;;;4910534;29;20024;-57
2021/08/12 08:49:40;;;;;;;12.25;8.20;;;29.60;92.10;;;;;;4914470;29;20123;-58
2021/08/12 08:52:10;;;;;;;16.75;13.20;;;30.00;91.90;;;;;;4916223;29;20083;-59
2021/08/12 08:54:40;;;;;;;20.60;12.25;;;30.30;90.40;;;;;;4908773;29;20021;-59
2021/08/12 08:57:08;;;;;;;25.75;11.80;;;30.30;89.80;;;;;;4902102;29;20048;-57
2021/08/12 08:59:34;;;;;;;14.23;9.27;;;30.30;91.20;;;;;;4912224;29;20495;-56
2021/08/12 09:02:07;;;;;;;11.68;8.55;;;31.20;90.00;;;;;;4907022;29;20120;-57
2021/08/12 09:04:34;;;;;;;13.80;10.80;;;31.70;89.10;;;;;;4904012;29;20416;-60
2021/08/12 09:07:03;;;;;;;15.73;9.30;;;30.50;88.40;;;;;;4908709;29;20028;-60
2021/08/12 09:09:33;;;;;;;11.30;7.13;;;30.20;90.00;;;;;;4911817;29;20050;-60
2021/08/12 09:12:00;;;;;;;13.70;7.70;;;31.10;89.30;;;;;;4906373;29;20111;-57
2021/08/12 09:14:33;;;;;;;13.43;7.97;;;32.00;88.10;;;;;;4907157;29;20028;-60
2021/08/12 09:17:01;;;;;;;11.80;6.82;;;31.30;87.50;;;;;;4901828;29;20484;-60
2021/08/12 09:19:26;;;;;;;10.23;6.95;;;31.40;87.30;;;;;;4907042;29;20111;-60
2021/08/12 09:21:58;;;;;;;10.10;7.13;;;31.30;88.00;;;;;;4909313;29;20112;-59
2021/08/12 09:24:24;;;;;;;8.63;6.90;;;31.20;88.50;;;;;;4910429;29;20036;-58
2021/08/12 09:26:50;;;;;;;7.82;5.78;;;31.50;85.40;;;;;;4892267;29;20451;-60
2021/08/12 09:29:30;;;;;;;8.20;5.75;;;31.40;85.60;;;;;;4911235;29;20059;-57
2021/08/12 09:32:03;;;;;;;10.05;6.07;;;32.20;83.70;;;;;;4911001;29;20028;-57
2021/08/12 09:34:43;;;;;;;8.65;6.10;;;31.90;83.00;;;;;;4904671;29;20108;-58
2021/08/12 09:37:10;;;;;;;13.68;6.57;;;31.50;84.10;;;;;;4905869;29;20095;-60
2021/08/12 09:39:37;;;;;;;7.75;6.05;;;31.00;85.20;;;;;;4908157;29;20036;-58
2021/08/12 09:42:05;;;;;;;12.75;6.30;;;30.80;85.80;;;;;;4901701;29;20051;-60
2021/08/12 09:44:33;;;;;;;8.68;5.22;;;30.80;87.50;;;;;;4902486;29;20043;-58
2021/08/12 09:47:02;;;;;;;7.30;5.60;;;30.50;85.70;;;;;;4903978;29;20039;-58
2021/08/12 09:49:48;;;;;;;9.13;5.53;;;30.30;87.40;;;;;;4909240;29;20087;-60
2021/08/12 09:52:21;;;;;;;9.27;6.05;;;30.50;84.30;;;;;;4900742;29;20714;-56
2021/08/12 09:54:54;;;;;;;6.13;4.90;;;30.30;84.20;;;;;;4895480;29;20025;-57
2021/08/12 09:57:21;;;;;;;7.95;4.45;;;30.30;85.00;;;;;;4904718;29;20012;-58
2021/08/12 09:59:51;;;;;;;6.65;5.32;;;30.70;85.00;;;;;;4908540;29;20502;-57
2021/08/12 10:02:18;;;;;;;7.68;5.78;;;30.50;85.20;;;;;;4906857;29;20028;-57
2021/08/12 10:04:44;;;;;;;9.82;5.45;;;30.10;86.20;;;;;;4908660;29;20028;-57
2021/08/12 10:07:39;;;;;;;7.18;5.20;;;30.00;87.90;;;;;;4904662;29;20479;-57
2021/08/12 10:10:26;;;;;;;6.75;4.57;;;30.50;86.20;;;;;;4905952;29;20391;-58
2021/08/12 10:12:57;;;;;;;8.50;4.82;;;30.10;83.60;;;;;;4904102;29;20399;-59
2021/08/12 10:15:28;;;;;;;7.53;5.32;;;29.70;85.30;;;;;;4906066;29;20399;-57
2021/08/12 10:17:55;;;;;;;7.00;4.30;;;29.80;86.00;;;;;;4904348;29;20024;-59
2021/08/12 10:20:32;;;;;;;5.13;3.47;;;30.00;85.80;;;;;;4906230;29;20032;-57
2021/08/12 10:23:02;;;;;;;10.15;4.18;;;30.10;85.50;;;;;;4906250;29;20515;-59
2021/08/12 10:25:28;;;;;;;7.93;3.70;;;29.90;86.40;;;;;;4909060;29;20032;-58
2021/08/12 10:27:57;;;;;;;7.72;4.07;;;29.90;82.10;;;;;;4894263;29;20051;-58
2021/08/12 10:30:24;;;;;;;6.20;4.00;;;29.80;83.90;;;;;;4910440;29;20519;-58
2021/08/12 10:32:57;;;;;;;7.10;3.80;;;29.90;84.40;;;;;;4911449;29;20068;-56
2021/08/12 10:35:24;;;;;;;6.70;3.40;;;28.70;81.90;;;;;;4915747;29;20133;-57
2021/08/12 10:37:53;;;;;;;4.55;3.63;;;28.90;84.70;;;;;;4913095;29;20107;-58
2021/08/12 10:40:21;;;;;;;8.80;3.80;;;28.50;82.10;;;;;;4915178;29;20028;-57
2021/08/12 10:42:48;;;;;;;5.38;3.33;;;28.70;84.20;;;;;;4912247;29;20035;-58
2021/08/12 10:45:18;;;;;;;6.22;3.15;;;28.80;83.10;;;;;;4915656;29;20028;-56
2021/08/12 10:47:54;;;;;;;9.00;3.55;;;28.40;83.50;;;;;;4911394;29;20122;-57
2021/08/12 10:50:30;;;;;;;5.10;3.13;;;28.20;82.60;;;;;;4914676;29;20490;-58
2021/08/12 10:53:01;;;;;;;6.28;3.60;;;28.10;86.80;;;;;;4911541;29;20020;-57
2021/08/12 10:55:28;;;;;;;7.65;3.40;;;28.00;87.40;;;;;;4913114;29;20047;-59
2021/08/12 10:58:29;;;;;;;5.90;3.92;;;28.00;88.00;;;;;;4907437;29;20409;-58
2021/08/12 11:00:59;;;;;;;4.13;3.40;;;28.00;87.90;;;;;;4909085;29;20051;-57
2021/08/12 11:03:34;;;;;;;5.55;3.92;;;27.80;87.90;;;;;;4913713;29;20488;-58
2021/08/12 11:06:00;;;;;;;4.80;3.53;;;28.10;91.30;;;;;;4910352;29;20091;-57
2021/08/12 11:08:48;;;;;;;6.68;3.67;;;27.90;89.70;;;;;;4912435;29;20036;-58
2021/08/12 11:11:20;;;;;;;4.78;3.50;;;28.00;86.90;;;;;;4904099;29;20037;-56
2021/08/12 11:13:47;;;;;;;7.67;3.67;;;28.00;90.30;;;;;;4914685;29;20028;-56
2021/08/12 11:16:13;;;;;;;6.90;3.85;;;28.30;87.60;;;;;;4911872;29;20119;-59
2021/08/12 11:18:46;;;;;;;5.93;4.10;;;28.20;90.50;;;;;;4914302;29;20571;-58
2021/08/12 11:21:29;;;;;;;7.03;3.70;;;28.30;91.00;;;;;;4914103;29;20044;-58
2021/08/12 11:24:02;;;;;;;6.90;3.83;;;28.10;89.10;;;;;;4915040;29;20043;-58
2021/08/12 11:26:47;;;;;;;8.88;3.47;;;27.90;90.30;;;;;;4912394;29;20118;-56
2021/08/12 11:29:22;;;;;;;9.30;4.00;;;28.20;90.20;;;;;;4889509;29;20143;-58
2021/08/12 11:31:47;;;;;;;6.03;3.78;;;28.20;90.00;;;;;;4911961;29;20035;-57
2021/08/12 11:34:24;;;;;;;8.25;4.00;;;28.10;90.20;;;;;;4914531;29;20519;-57
2021/08/12 11:37:14;;;;;;;10.10;4.47;;;27.90;89.10;;;;;;4908808;29;20040;-59
2021/08/12 11:39:53;;;;;;;7.03;4.10;;;28.00;90.90;;;;;;4910128;29;20028;-58
2021/08/12 11:42:24;;;;;;;5.70;3.92;;;27.80;89.40;;;;;;4906437;29;20025;-57
2021/08/12 11:44:51;;;;;;;4.35;3.60;;;27.70;90.50;;;;;;4914619;29;20095;-56
2021/08/12 11:47:17;;;;;;;5.95;4.32;;;27.70;89.80;;;;;;4910529;29;20020;-58
2021/08/12 11:50:03;;;;;;;7.90;3.83;;;27.60;90.10;;;;;;4910664;29;20059;-59
2021/08/12 11:52:33;;;;;;;5.22;3.83;;;27.80;90.80;;;;;;4903781;29;20104;-58
2021/08/12 11:55:10;;;;;;;7.40;4.22;;;27.80;90.70;;;;;;4903335;29;20034;-59
2021/08/12 11:57:48;;;;;;;5.72;3.90;;;27.80;90.40;;;;;;4905080;29;20046;-56
2021/08/12 12:00:21;;;;;;;10.82;4.03;;;27.90;90.00;;;;;;4912675;29;20431;-59
2021/08/12 12:02:51;;;;;;;5.70;4.07;;;28.30;90.40;;;;;;4917287;29;20032;-59
2021/08/12 12:05:22;;;;;;;8.05;4.43;;;28.40;90.30;;;;;;4901814;29;20111;-55
2021/08/12 12:07:50;;;;;;;8.07;4.20;;;28.50;89.50;;;;;;4906754;29;20514;-57
2021/08/12 12:10:25;;;;;;;12.30;3.95;;;28.50;87.60;;;;;;4901324;29;20028;-55
2021/08/12 12:12:51;;;;;;;7.72;4.07;;;28.90;86.50;;;;;;4899498;29;20059;-58
2021/08/12 12:15:31;;;;;;;4.72;3.55;;;29.00;87.90;;;;;;4897639;29;20056;-56
2021/08/12 12:17:56;;;;;;;12.18;5.03;;;29.10;89.40;;;;;;4898574;29;20036;-57
2021/08/12 12:20:24;;;;;;;5.47;3.50;;;29.00;88.90;;;;;;4895288;29;20100;-59
2021/08/12 12:22:59;;;;;;;6.03;4.38;;;28.90;90.50;;;;;;4894989;29;20484;-58
2021/08/12 12:25:25;;;;;;;6.22;3.80;;;28.80;86.00;;;;;;4895120;29;20039;-56
2021/08/12 12:27:51;;;;;;;5.80;3.80;;;28.60;88.90;;;;;;4897873;29;20025;-60
2021/08/12 12:30:17;;;;;;;5.25;3.72;;;28.80;90.40;;;;;;4883122;29;20040;-60
2021/08/12 12:32:56;;;;;;;6.47;4.32;;;29.00;89.30;;;;;;4897526;29;20044;-57
2021/08/12 12:35:23;;;;;;;6.22;4.13;;;29.30;89.30;;;;;;4896234;29;20021;-57
2021/08/12 12:37:48;;;;;;;5.90;4.55;;;29.50;87.60;;;;;;4897911;29;20076;-59
2021/08/12 12:40:20;;;;;;;10.57;4.28;;;29.40;88.40;;;;;;4896630;29;20138;-56
2021/08/12 12:42:50;;;;;;;8.55;4.35;;;28.70;87.00;;;;;;4897142;29;20028;-57